In Rescue
 
Open Full Screen Window  High Contrast Mode
August 09, 2020 6:40 PM EDT
Weather Information
Wind Direction
  ---
Wind Speed
  00 kt (0 mph)
Wind Gust
  00 kt (0 mph)
Altimeter
30.09 in
Visibility
7 SM
Temperature
29° C
84° F
Dewpoint
17° C
63° F
Humidity
48%
1hr Rain Fall
00.00 in.
24hr Rain Fall
00.00 in.
Sky Condition
Clear
VFR

METAR KPOV 092240Z AUTO 00000KT 7SM CLR 29/17 A3009 RMK AO2 T02850165 PWINO

FAA Disclaimer: The data displayed is for advisory purposes only and is not to be used for flight planning or operations.